• Join FlightAware (Why Join?)
  • Login
  • US Flag 
09:26PM EDT


 

Airport Tracker/Info


-or-


 

Live Flight TrackerFlight Track Log ✈ SWA3321 ✈ 01-Feb-2014 ✈ KMSY - KTPA

Flight Track Log - Related Links

Times and Time Zones

All times are in EST time to prevent confusion due to time zone crossing. See the SWA3321 flight status page for this flight to view local times or setup timezone preferences in your user account.

Time Position Orientation Groundspeed Altitude Reporting Facility
EST Latitude Longitude Course Direction KTS MPH feet Rate Location/Type
07:09PM 29.9525 -90.2578 178° South 165 190 2,100  Level Houston Center
07:10PM 29.8942 -90.2175 149° Southeast 246 283 6,100 3,900 Climbing Houston Center
07:11PM 29.8406 -90.1572 136° Southeast 257 296 10,200 3,660 Climbing Houston Center
07:12PM 29.7775 -90.0883 137° Southeast 281 323 13,700 3,180 Climbing Houston Center
07:13PM 29.7089 -90.0117 136° Southeast 322 371 16,800 3,180 Climbing Houston Center
07:14PM 29.6564 -89.9094 121° Southeast 371 427 20,300 3,120 Climbing Houston Center
07:15PM 29.6297 -89.7883 104° East 391 450 23,300 2,580 Climbing Houston Center
07:16PM 29.6008 -89.6611 105° East 410 472 25,600 2,340 Climbing Houston Center
07:17PM 29.5622 -89.4958 105° East 441 507 28,100 2,160 Climbing Houston Center
07:18PM 29.5294 -89.3525 105° East 458 527 30,100 1,860 Climbing Houston Center
07:19PM 29.4939 -89.2039 105° East 474 545 32,000 1,740 Climbing Houston Center
07:20PM 29.4581 -89.0525 105° East 487 560 33,700 1,620 Climbing Houston Center
07:22PM 29.4222 -88.8956 105° East 503 579 35,300 1,500 Climbing Houston Center
07:23PM 29.3853 -88.7389 105° East 511 588 36,800 1,560 Climbing Houston Center
07:24PM 29.3475 -88.5808 105° East 514 592 38,500 1,680 Climbing Houston Center
07:25PM 29.3014 -88.3925 106° East 514 592 40,300 1,200 Climbing Houston Center
07:26PM 29.2656 -88.2397 105° East 502 578 41,000 300 Climbing Houston Center
07:27PM 29.2275 -88.0869 106° East 500 575 41,000  Level Houston Center
07:28PM 29.1906 -87.9322 105° East 500 575 41,000  Level Houston Center
07:29PM 29.1522 -87.7806 106° East 498 573 41,000  Level Houston Center
07:30PM 29.1147 -87.6283 106° East 499 574 41,000  Level Houston Center
07:31PM 29.0764 -87.4775 106° East 497 572 41,000  Level Houston Center
07:32PM 29.0394 -87.3278 106° East 495 570 41,000  Level Houston Center
07:33PM 29.0011 -87.1775 106° East 494 568 41,000  Level Houston Center
07:34PM 28.9553 -86.9967 106° East 495 570 41,000  Level Houston Center
07:35PM 28.9156 -86.8442 107° East 488 562 41,000  Level Jacksonville Center
07:36PM 28.8781 -86.7003 107° East 488 562 41,000  Level Jacksonville Center
07:37PM 28.8386 -86.5494 107° East 488 562 41,000  Level Jacksonville Center
07:38PM 28.7989 -86.4011 107° East 488 562 41,000  Level Jacksonville Center
07:39PM 28.7633 -86.2483 105° East 488 562 41,000  Level Jacksonville Center
07:40PM 28.7233 -86.1028 107° East 483 556 41,000  Level Jacksonville Center
07:41PM 28.6833 -85.9500 107° East 488 562 41,000  Level Jacksonville Center
07:42PM 28.6408 -85.7997 108° East 488 562 41,000  Level Jacksonville Center
07:43PM 28.6022 -85.6542 107° East 483 556 41,000  Level Jacksonville Center
07:44PM 28.5639 -85.4997 106° East 489 563 41,000 -1,380 Level Jacksonville Center
07:46PM 28.4781 -85.1800 107° East 510 587 36,800 -2,400 Descending Miami Center
07:47PM 28.4347 -85.0283 108° East 510 587 33,600 -3,360 Descending Miami Center
07:48PM 28.3953 -84.8769 106° East 510 587 30,100 -3,180 Descending Miami Center
07:49PM 28.3519 -84.7231 108° East 510 587 27,300 -2,640 Descending Miami Center
07:50PM 28.3156 -84.5839 107° East 489 563 24,900 -1,200 Descending Miami Center
07:51PM 28.2808 -84.4544 107° East 458 527 25,000  Climbing Miami Center
07:52PM 28.2344 -84.3078 110° East 436 502 25,000  Level Miami Center
07:53PM 28.1975 -84.1758 108° East 436 502 25,000  Level Miami Center
07:54PM 28.1603 -84.0442 108° East 436 502 25,000  Level Miami Center
07:55PM 28.1231 -83.9125 108° East 436 502 25,000 -1,080 Level Miami Center
07:56PM 28.0878 -83.7833 107° East 431 496 22,900 -2,400 Descending Miami Center
07:57PM 28.0519 -83.6567 108° East 431 496 20,300 -2,580 Descending Miami Center
07:58PM 28.0181 -83.5347 107° East 424 488 17,800 -2,520 Descending Miami Center
07:59PM 27.9861 -83.4178 107° East 409 471 15,300 -2,520 Descending Miami Center
08:00PM 27.9533 -83.3103 109° East 382 440 12,800 -2,400 Descending Miami Center
08:01PM 27.9228 -83.1981 107° East 372 428 10,500 -1,620 Descending Miami Center
08:02PM 27.9603 -83.1061 65° Northeast 315 362 9,600 -960 Descending Miami Center
08:03PM 28.0175 -83.0364 47° Northeast 293 337 8,600 -1,020 Descending Miami Center
08:04PM 28.0669 -82.9569 55° Northeast 298 343 7,600 -960 Descending Miami Center
08:05PM 28.0992 -82.8833 64° Northeast 293 337 6,700 -900 Descending Miami Center
08:06PM 28.1333 -82.8000 65° Northeast 284 327 5,900 -900 Descending Tampa TRACON
08:07PM 28.1500 -82.7333 74° East 224 258 5,000 -1,080 Descending Tampa TRACON
08:08PM 28.1500 -82.6667 90° East 219 252 3,800 -1,500 Descending Tampa TRACON
08:09PM 28.1333 -82.6000 106° East 218 251 2,100 -900 Descending Tampa TRACON
08:10PM 28.1000 -82.5500 127° Southeast 204 235 2,000 -420 Descending Tampa TRACON
08:11PM 28.0667 -82.5333 156° South 141 162 1,300 -660 Descending Tampa TRACON
08:12PM 28.0167 -82.5500 196° South 119 137 700 -600 Descending Tampa TRACON
08:14PM 27.9755 -82.5332 180° South  Level Estimated
08:21PM 27.9755 -82.5332 19° North  Level Estimated
08:22PM 27.9755 -82.5332 19° North  Level Estimated